Time;durP1;ratioP1;P1;durP2;ratioP2;P2;SDS_P1;SDS_P2;PMS_P1;PMS_P2;Temp;Humidity;BMP_temperature;BMP_pressure;BME280_temperature;BME280_humidity;BME280_pressure;Samples;Min_cycle;Max_cycle;Signal;HPM_P1;HPM_P2
2022/12/31 00:02:24;;;;;;;4.50;3.10;;;14.30;90.20;;;16.85;63.24;100149.72;5032950;28;20686;-52
2022/12/31 00:04:53;;;;;;;4.00;3.70;;;14.30;90.10;;;16.88;62.85;100144.72;5033138;28;20186;-54
2022/12/31 00:07:20;;;;;;;3.70;3.40;;;14.30;90.10;;;16.86;63.25;100153.97;5033381;28;20252;-52
2022/12/31 00:09:49;;;;;;;5.23;3.87;;;14.40;90.10;;;16.86;63.05;100148.66;5032826;28;20211;-55
2022/12/31 00:12:15;;;;;;;3.57;3.03;;;14.30;90.00;;;16.83;63.36;100155.25;5023954;28;20252;-55
2022/12/31 00:14:43;;;;;;;3.50;3.20;;;14.40;90.10;;;16.87;63.13;100160.94;5033576;28;20218;-55
2022/12/31 00:17:10;;;;;;;3.73;3.40;;;14.30;90.00;;;16.88;63.13;100158.03;5033955;28;20200;-52
2022/12/31 00:19:37;;;;;;;3.63;3.33;;;14.30;90.10;;;16.82;63.37;100152.81;5033837;28;20230;-52
2022/12/31 00:22:04;;;;;;;3.60;3.30;;;14.30;90.10;;;16.81;63.57;100161.81;5016286;28;20207;-52
2022/12/31 00:24:32;;;;;;;3.20;2.90;;;14.30;90.10;;;16.77;63.59;100163.34;5013506;28;20191;-51
2022/12/31 00:27:00;;;;;;;4.33;3.43;;;14.30;90.20;;;16.63;64.41;100159.25;5013994;28;20279;-53
2022/12/31 00:29:27;;;;;;;3.90;3.40;;;14.30;90.50;;;16.54;64.90;100150.81;5013831;28;20680;-54
2022/12/31 00:31:54;;;;;;;3.70;3.30;;;14.30;90.50;;;16.53;64.81;100159.81;5014356;28;20203;-53
2022/12/31 00:34:21;;;;;;;3.97;3.57;;;14.30;90.50;;;16.55;64.99;100154.25;5014233;28;20219;-53
2022/12/31 00:36:48;;;;;;;5.00;3.73;;;14.30;90.90;;;16.60;64.67;100157.06;5014199;28;20187;-53
2022/12/31 00:39:15;;;;;;;3.67;3.40;;;14.30;90.60;;;16.67;64.54;100155.09;5017375;28;20215;-56
2022/12/31 00:41:42;;;;;;;5.87;3.30;;;14.30;90.60;;;16.71;64.62;100154.41;5018784;28;20202;-56
2022/12/31 00:44:12;;;;;;;3.70;3.40;;;14.30;90.70;;;16.72;64.49;100168.53;5017405;28;20682;-53
2022/12/31 00:46:39;;;;;;;4.87;3.43;;;14.20;90.70;;;16.77;64.41;100166.81;5017326;28;20199;-53
2022/12/31 00:49:05;;;;;;;4.30;3.87;;;14.20;90.70;;;16.78;64.20;100178.25;5029294;28;20230;-53
2022/12/31 00:51:32;;;;;;;5.80;3.63;;;14.30;90.80;;;16.77;64.58;100172.13;5025554;28;20702;-54
2022/12/31 00:53:59;;;;;;;3.80;3.43;;;14.30;90.90;;;16.76;64.43;100172.34;5017367;28;20695;-53
2022/12/31 00:56:29;;;;;;;4.60;3.90;;;14.30;90.80;;;16.77;64.34;100177.44;5017238;28;20195;-55
2022/12/31 00:58:58;;;;;;;3.53;3.23;;;14.20;90.90;;;16.81;64.10;100177.78;5017366;28;20544;-53
2022/12/31 01:01:30;;;;;;;4.00;3.43;;;14.20;90.80;;;16.78;64.42;100183.56;5027309;28;20198;-55
2022/12/31 01:04:02;;;;;;;3.37;3.07;;;14.20;90.90;;;16.78;64.25;100178.25;5037058;28;20194;-54
2022/12/31 01:06:30;;;;;;;3.50;3.20;;;14.20;90.90;;;16.82;64.12;100174.09;5036499;28;20201;-52
2022/12/31 01:08:57;;;;;;;3.30;3.00;;;14.20;90.90;;;16.83;64.30;100170.38;5036670;28;20428;-54
2022/12/31 01:11:28;;;;;;;3.73;3.47;;;14.20;90.80;;;16.79;64.25;100170.03;5036873;28;20237;-52
2022/12/31 01:13:58;;;;;;;4.50;3.50;;;14.20;90.90;;;16.79;64.46;100170.03;5037457;28;20191;-54
2022/12/31 01:16:31;;;;;;;3.33;3.03;;;14.30;90.90;;;16.81;64.42;100172.47;5036766;28;20194;-53
2022/12/31 01:18:59;;;;;;;3.07;2.83;;;14.20;90.80;;;16.86;64.04;100169.94;5036454;28;20222;-52
2022/12/31 01:21:27;;;;;;;3.27;3.07;;;14.30;90.80;;;16.84;64.31;100169.34;5036521;28;20191;-52
2022/12/31 01:23:54;;;;;;;3.67;3.37;;;14.30;90.80;;;16.81;64.48;100175.94;5036842;28;20197;-53
2022/12/31 01:26:21;;;;;;;3.70;3.40;;;14.30;90.80;;;16.82;64.45;100171.44;5037281;28;20216;-54
2022/12/31 01:28:48;;;;;;;2.80;2.60;;;14.30;90.80;;;16.81;64.63;100177.78;5037098;28;20578;-51
2022/12/31 01:31:19;;;;;;;3.07;2.87;;;14.30;90.90;;;16.83;64.14;100173.84;5036805;28;20198;-52
2022/12/31 01:33:48;;;;;;;3.90;3.20;;;14.30;90.90;;;16.82;64.35;100180.22;5038100;28;20201;-53
2022/12/31 01:36:17;;;;;;;3.17;2.50;;;14.30;91.00;;;16.79;64.44;100179.84;5036651;28;20225;-51
2022/12/31 01:38:53;;;;;;;3.03;2.83;;;14.30;91.00;;;16.78;64.78;100178.25;5036834;28;20225;-52
2022/12/31 01:41:23;;;;;;;2.83;2.60;;;14.30;91.00;;;16.73;65.04;100175.47;5026448;28;20234;-53
2022/12/31 01:43:53;;;;;;;4.03;2.73;;;14.30;91.10;;;16.70;65.14;100171.41;5015683;28;20187;-52
2022/12/31 01:46:33;;;;;;;2.80;2.60;;;14.30;91.20;;;16.70;64.93;100165.28;5016026;28;20192;-52
2022/12/31 01:49:09;;;;;;;3.70;2.87;;;14.30;91.10;;;16.68;65.41;100172.69;5026490;28;20244;-52
2022/12/31 01:51:41;;;;;;;2.87;2.50;;;14.30;91.20;;;16.70;65.56;100165.28;5024961;28;20206;-54
2022/12/31 01:54:13;;;;;;;3.13;2.83;;;14.30;91.20;;;16.61;65.43;100174.63;5016141;28;20203;-54
2022/12/31 01:56:43;;;;;;;3.13;2.53;;;14.30;91.30;;;16.64;65.73;100176.84;5016759;28;20191;-54
2022/12/31 01:59:15;;;;;;;2.87;2.67;;;14.30;91.40;;;16.61;66.07;100187.91;5016390;28;20214;-53
2022/12/31 02:01:42;;;;;;;2.97;2.67;;;14.20;91.40;;;16.61;65.98;100183.41;5027505;28;20190;-52
2022/12/31 02:04:13;;;;;;;2.77;2.57;;;14.30;91.50;;;16.57;66.31;100181.44;5035781;28;20197;-53
2022/12/31 02:06:46;;;;;;;2.87;2.53;;;14.30;91.60;;;16.60;66.16;100173.81;5035759;28;20205;-54
2022/12/31 02:09:14;;;;;;;4.27;2.70;;;14.30;91.60;;;16.61;66.60;100177.28;5035514;28;20233;-52
2022/12/31 02:11:41;;;;;;;3.03;2.83;;;14.30;91.70;;;16.58;66.63;100177.72;5024537;28;20551;-53
2022/12/31 02:14:14;;;;;;;3.73;2.57;;;14.20;91.80;;;16.53;66.86;100170.44;5015444;28;20191;-51
2022/12/31 02:16:53;;;;;;;3.20;2.77;;;14.20;91.80;;;16.51;67.07;100174.34;5015496;28;20184;-52
2022/12/31 02:20:09;;;;;;;3.07;2.87;;;14.30;92.00;;;16.45;67.38;100183.22;5015352;28;20215;-54
2022/12/31 02:23:05;;;;;;;2.63;2.43;;;14.30;92.10;;;16.46;67.41;100174.19;5015789;28;20198;-53
2022/12/31 02:25:54;;;;;;;2.63;2.43;;;14.30;92.10;;;16.44;67.69;100176.28;5015541;28;20191;-54
2022/12/31 02:28:48;;;;;;;2.40;2.30;;;14.20;92.20;;;16.49;67.73;100179.06;5015188;28;20179;-52
2022/12/31 02:31:28;;;;;;;2.50;2.30;;;14.30;92.20;;;16.57;67.21;100176.13;5023536;28;20187;-52
2022/12/31 02:34:02;;;;;;;2.40;2.20;;;14.30;92.20;;;16.70;67.11;100183.88;5035622;28;20328;-53
2022/12/31 02:36:36;;;;;;;2.23;1.73;;;14.30;92.10;;;16.80;66.45;100186.81;5026659;28;20211;-54
2022/12/31 02:39:06;;;;;;;2.43;2.23;;;14.30;92.10;;;16.83;66.46;100183.66;5015209;28;20218;-52
2022/12/31 02:41:51;;;;;;;2.97;2.50;;;14.40;92.10;;;16.84;66.74;100193.28;5024827;28;20198;-54
2022/12/31 02:44:24;;;;;;;1.93;1.80;;;14.40;92.10;;;16.89;66.42;100185.44;5034871;28;20300;-53
2022/12/31 02:47:16;;;;;;;2.37;2.17;;;14.40;92.10;;;16.95;66.09;100179.19;5034947;28;20682;-53
2022/12/31 02:50:04;;;;;;;4.00;1.80;;;14.40;92.10;;;16.97;65.93;100174.47;5035243;28;20211;-52
2022/12/31 02:52:47;;;;;;;1.80;1.70;;;14.40;92.00;;;16.99;65.94;100175.03;5017630;28;20191;-52
2022/12/31 02:55:24;;;;;;;2.00;1.90;;;14.50;92.00;;;16.96;66.30;100172.84;5014903;28;20222;-53
2022/12/31 02:58:01;;;;;;;2.43;1.80;;;14.40;92.10;;;16.95;66.27;100181.84;5014395;28;20187;-54
2022/12/31 03:03:42;;;;;;;2.37;2.17;;;14.50;92.00;;;16.95;66.28;100184.50;5014711;28;20229;-55
2022/12/31 03:06:12;;;;;;;1.77;1.67;;;14.50;92.00;;;17.00;66.14;100187.28;5016265;28;20223;-51
2022/12/31 03:14:20;;;;;;;1.90;1.80;;;14.50;92.00;;;16.93;66.56;100186.59;5019272;28;20211;-55
2022/12/31 03:16:47;;;;;;;2.23;2.03;;;14.50;92.00;;;16.90;66.50;100177.22;5019738;28;20568;-54
2022/12/31 03:27:32;;;;;;;1.90;1.80;;;14.50;91.90;;;16.97;66.21;100179.78;5020480;28;20188;-56
2022/12/31 03:29:59;;;;;;;2.30;2.07;;;14.50;91.90;;;17.01;65.93;100172.97;5020862;28;20215;-56
2022/12/31 03:32:26;;;;;;;5.53;2.10;;;14.50;91.90;;;17.01;66.02;100172.97;5035272;28;20305;-55
2022/12/31 03:34:54;;;;;;;1.93;1.80;;;14.50;91.90;;;17.06;66.02;100175.75;5038884;28;20222;-55
2022/12/31 03:37:21;;;;;;;1.50;1.40;;;14.50;91.90;;;17.08;65.78;100181.63;5038303;28;20644;-55
2022/12/31 03:39:48;;;;;;;1.40;1.30;;;14.50;91.90;;;17.11;65.45;100181.19;5038343;28;20225;-54
2022/12/31 03:42:15;;;;;;;1.93;1.60;;;14.50;91.90;;;17.11;65.39;100194.47;5039163;28;20207;-55
2022/12/31 03:44:42;;;;;;;1.67;1.57;;;14.50;91.80;;;17.13;65.37;100197.72;5039919;28;20190;-51
2022/12/31 03:47:09;;;;;;;1.67;1.40;;;14.50;91.80;;;17.16;65.23;100194.59;5040415;28;20642;-54
2022/12/31 03:49:36;;;;;;;1.57;1.40;;;14.50;91.80;;;17.18;65.14;100192.53;5039839;28;20727;-55
2022/12/31 03:52:05;;;;;;;1.13;1.13;;;14.50;91.80;;;17.22;64.81;100193.66;5033003;28;20521;-54
2022/12/31 03:54:32;;;;;;;0.73;0.73;;;14.50;91.70;;;17.24;64.83;100199.56;5017904;28;20200;-55
2022/12/31 03:56:59;;;;;;;2.07;1.10;;;14.50;91.60;;;17.25;64.53;100195.06;5025162;28;20211;-55
2022/12/31 03:59:26;;;;;;;0.90;0.90;;;14.50;91.50;;;17.16;64.15;100196.44;5037871;28;20219;-54
2022/12/31 04:01:53;;;;;;;1.00;1.00;;;14.50;91.20;;;17.14;64.17;100198.53;5032616;28;20584;-54
2022/12/31 04:04:20;;;;;;;0.83;0.63;;;14.50;91.20;;;17.13;64.33;100196.91;5032189;28;20278;-56
2022/12/31 04:06:47;;;;;;;0.60;0.50;;;14.50;91.10;;;17.12;64.09;100201.41;5032656;28;20533;-56
2022/12/31 04:09:15;;;;;;;0.60;0.40;;;14.40;91.00;;;17.13;63.96;100195.06;5015651;28;20207;-54
2022/12/31 04:11:42;;;;;;;0.53;0.53;;;14.40;90.90;;;17.11;63.88;100188.34;5026579;28;20194;-56
2022/12/31 04:14:10;;;;;;;1.73;1.50;;;14.40;90.80;;;17.08;63.55;100184.28;5039457;28;20195;-56
2022/12/31 04:16:37;;;;;;;1.10;1.00;;;14.40;90.80;;;17.08;63.57;100186.97;5039741;28;20214;-56
2022/12/31 04:19:04;;;;;;;0.90;0.90;;;14.40;90.70;;;17.08;63.61;100189.63;5039610;28;20687;-56
2022/12/31 04:21:31;;;;;;;0.70;0.67;;;14.40;90.70;;;17.09;63.33;100183.25;5031188;28;20199;-56
2022/12/31 04:24:01;;;;;;;1.47;0.50;;;14.30;90.60;;;16.93;63.24;100179.41;5021247;28;20628;-54
2022/12/31 04:26:30;;;;;;;1.20;0.47;;;14.30;90.50;;;16.87;63.31;100183.00;5021354;28;20202;-55
2022/12/31 04:28:57;;;;;;;0.77;0.60;;;14.30;90.50;;;16.82;63.55;100180.22;5020600;28;20207;-56
2022/12/31 04:31:24;;;;;;;0.60;0.57;;;14.30;90.50;;;16.79;63.64;100161.25;5020556;28;20191;-56
2022/12/31 04:33:51;;;;;;;1.03;0.50;;;14.20;90.50;;;16.77;63.73;100145.53;5019206;28;20588;-56
2022/12/31 04:36:17;;;;;;;1.20;0.80;;;14.30;90.50;;;16.76;63.62;100138.59;5019794;28;20585;-55
2022/12/31 04:38:44;;;;;;;0.50;0.50;;;14.20;90.60;;;16.73;63.65;100143.56;5018976;28;20604;-54
2022/12/31 04:41:18;;;;;;;0.83;0.83;;;14.20;90.60;;;16.69;64.21;100142.41;5016846;28;20194;-53
2022/12/31 04:43:50;;;;;;;0.50;0.50;;;14.10;90.70;;;16.62;64.13;100152.31;5016865;28;20176;-54
2022/12/31 04:46:21;;;;;;;0.60;0.53;;;14.10;90.70;;;16.57;64.31;100160.19;5016828;28;20195;-53
2022/12/31 04:48:48;;;;;;;1.07;0.80;;;14.10;90.80;;;16.55;64.46;100152.44;5017303;28;20207;-52
2022/12/31 04:51:15;;;;;;;0.53;0.53;;;14.00;90.80;;;16.48;64.55;100142.91;5016934;28;20226;-56
2022/12/31 04:53:42;;;;;;;0.93;0.70;;;14.00;90.80;;;16.47;64.62;100150.09;5028032;28;20190;-53
2022/12/31 04:56:10;;;;;;;1.07;0.60;;;14.00;90.90;;;16.48;64.49;100161.50;5037031;28;20214;-55
2022/12/31 04:58:38;;;;;;;0.80;0.60;;;14.00;90.90;;;16.50;64.44;100164.72;5036476;28;20551;-55
2022/12/31 05:01:07;;;;;;;0.60;0.60;;;14.00;90.90;;;16.51;64.36;100169.88;5030850;28;20613;-52
2022/12/31 05:03:35;;;;;;;0.47;0.47;;;14.00;90.90;;;16.48;64.36;100182.75;5017222;28;20238;-53
2022/12/31 05:06:05;;;;;;;0.93;0.60;;;13.90;90.80;;;16.47;64.34;100192.59;5016229;28;20187;-52
2022/12/31 05:08:33;;;;;;;0.87;0.50;;;14.00;90.80;;;16.51;64.43;100192.94;5032368;28;20202;-52
2022/12/31 05:11:00;;;;;;;0.67;0.50;;;14.00;90.80;;;16.52;64.42;100195.38;5031283;28;20203;-52
2022/12/31 05:13:27;;;;;;;1.23;0.47;;;14.00;90.80;;;16.53;64.20;100201.50;5015764;28;20195;-52
2022/12/31 05:16:00;;;;;;;0.63;0.53;;;14.00;90.80;;;16.52;64.22;100205.22;5015530;28;20561;-51
2022/12/31 05:18:31;;;;;;;1.33;0.80;;;13.90;90.70;;;16.54;63.95;100211.94;5019325;28;20191;-55
2022/12/31 05:20:58;;;;;;;0.60;0.50;;;13.90;90.70;;;16.54;64.14;100224.41;5018418;28;20199;-56
2022/12/31 05:23:25;;;;;;;0.60;0.60;;;13.90;90.70;;;16.55;64.13;100215.38;5018177;28;20191;-55
2022/12/31 05:25:52;;;;;;;1.17;0.57;;;13.90;90.70;;;16.56;64.16;100217.00;5018356;28;20246;-55
2022/12/31 05:28:20;;;;;;;0.50;0.50;;;13.90;90.80;;;16.58;64.23;100214.94;5018678;28;20672;-57
2022/12/31 05:30:48;;;;;;;0.60;0.50;;;13.90;90.80;;;16.60;64.11;100232.28;5019203;28;20199;-55
2022/12/31 05:33:16;;;;;;;0.77;0.77;;;13.90;90.90;;;16.56;64.10;100232.97;5019143;28;20683;-56
2022/12/31 05:35:45;;;;;;;1.20;0.77;;;13.90;90.90;;;16.51;64.08;100224.81;5018482;28;20222;-57
2022/12/31 05:38:11;;;;;;;0.60;0.60;;;13.90;90.90;;;16.49;64.61;100226.91;5018127;28;20210;-53
2022/12/31 05:40:38;;;;;;;1.07;0.70;;;13.90;91.00;;;16.47;64.56;100234.28;5017816;28;20218;-53
2022/12/31 05:43:05;;;;;;;1.17;1.10;;;13.90;91.00;;;16.42;64.73;100231.50;5040104;28;20536;-56
2022/12/31 05:45:33;;;;;;;2.03;0.90;;;13.90;91.10;;;16.38;65.07;100222.34;5039880;28;20195;-57
2022/12/31 05:48:00;;;;;;;0.70;0.70;;;13.90;91.20;;;16.39;64.66;100226.63;5039922;28;20197;-59
2022/12/31 05:50:27;;;;;;;0.70;0.70;;;13.80;91.10;;;16.38;64.96;100223.13;5039553;28;20214;-55
2022/12/31 05:52:55;;;;;;;0.70;0.70;;;13.80;91.20;;;16.39;64.96;100226.63;5038696;28;20194;-54
2022/12/31 05:55:22;;;;;;;0.73;0.73;;;13.80;91.20;;;16.37;65.09;100224.19;5039039;28;20190;-54
2022/12/31 05:57:49;;;;;;;0.83;0.80;;;13.80;91.20;;;16.37;65.07;100207.44;5037820;28;20182;-52
2022/12/31 06:00:16;;;;;;;0.90;0.90;;;13.80;91.40;;;16.39;65.23;100216.00;5034188;28;20790;-52
2022/12/31 06:02:44;;;;;;;0.77;0.53;;;13.80;91.30;;;16.40;64.93;100229.06;5017861;28;20668;-52
2022/12/31 06:05:11;;;;;;;1.37;1.07;;;13.80;91.40;;;16.40;65.29;100233.56;5015072;28;20191;-55
2022/12/31 06:07:38;;;;;;;1.60;1.20;;;13.80;91.40;;;16.42;64.83;100207.56;5014957;28;20192;-54
2022/12/31 06:10:07;;;;;;;1.03;1.03;;;13.80;91.40;;;16.44;64.89;100208.97;5014760;28;20211;-52
2022/12/31 06:12:34;;;;;;;2.40;0.90;;;13.80;91.40;;;16.43;65.16;100202.03;5030546;28;20198;-53
2022/12/31 06:15:02;;;;;;;1.43;0.90;;;13.80;91.40;;;16.38;65.21;100201.09;5036015;28;20198;-52
2022/12/31 06:17:31;;;;;;;0.83;0.80;;;13.80;91.40;;;16.37;65.31;100226.03;5038893;28;20219;-52
2022/12/31 06:19:58;;;;;;;0.60;0.60;;;13.80;91.40;;;16.39;65.19;100237.25;5036409;28;20575;-55
2022/12/31 06:22:25;;;;;;;1.20;0.80;;;13.80;91.40;;;16.42;65.00;100237.63;5034987;28;20201;-52
2022/12/31 06:24:52;;;;;;;1.03;1.00;;;13.80;91.40;;;16.41;64.90;100224.53;5035427;28;20582;-52
2022/12/31 06:27:21;;;;;;;0.90;0.90;;;13.80;91.50;;;16.38;65.28;100240.94;5034844;28;20240;-53
2022/12/31 06:29:48;;;;;;;1.20;1.10;;;13.80;91.60;;;16.34;65.36;100234.44;5034494;28;20211;-52
2022/12/31 06:32:15;;;;;;;1.40;1.30;;;13.70;91.50;;;16.27;65.43;100238.00;5027674;28;20610;-53
2022/12/31 06:34:42;;;;;;;1.60;1.30;;;13.80;91.60;;;16.24;65.75;100234.97;5016042;28;20655;-53
2022/12/31 06:37:08;;;;;;;1.53;1.00;;;13.80;91.60;;;16.24;65.75;100221.69;5015171;28;20753;-52
2022/12/31 06:39:35;;;;;;;1.67;1.10;;;13.70;91.60;;;16.22;65.54;100208.66;5016592;28;20234;-54
2022/12/31 06:42:03;;;;;;;4.83;1.40;;;13.70;91.60;;;16.24;65.78;100201.25;5015385;28;20218;-52
2022/12/31 06:44:31;;;;;;;1.27;0.90;;;13.70;91.70;;;16.27;65.32;100219.41;5015266;28;20537;-54
2022/12/31 06:46:58;;;;;;;0.97;0.97;;;13.70;91.60;;;16.31;65.30;100232.25;5032784;28;20190;-55
2022/12/31 06:49:25;;;;;;;1.30;1.20;;;13.70;91.70;;;16.34;65.69;100245.06;5033893;28;20268;-53
2022/12/31 06:51:51;;;;;;;1.07;0.90;;;13.70;91.70;;;16.38;65.51;100251.56;5033404;28;20206;-54
2022/12/31 06:54:18;;;;;;;1.73;0.90;;;13.70;91.70;;;16.43;65.23;100251.69;5034069;28;20202;-56
2022/12/31 06:56:46;;;;;;;1.33;1.23;;;13.70;91.80;;;16.45;65.07;100257.63;5034094;28;20222;-53
2022/12/31 06:59:24;;;;;;;0.90;0.90;;;13.70;91.80;;;16.43;65.40;100249.84;5033606;28;20559;-55
2022/12/31 07:02:15;;;;;;;1.20;1.07;;;13.70;91.90;;;16.42;65.41;100247.44;5033219;28;20194;-53
2022/12/31 07:05:05;;;;;;;2.80;1.23;;;13.80;91.90;;;16.43;65.19;100233.09;5034170;28;20274;-55
2022/12/31 07:07:42;;;;;;;1.60;1.20;;;13.70;91.80;;;16.46;65.17;100233.47;5033793;28;20190;-54
2022/12/31 07:10:26;;;;;;;1.07;0.97;;;13.80;91.80;;;16.44;65.21;100221.44;5033844;28;20559;-54
2022/12/31 07:13:35;;;;;;;1.47;1.17;;;13.80;91.80;;;16.44;65.29;100234.72;5034160;28;20260;-53
2022/12/31 07:16:24;;;;;;;1.13;1.03;;;13.80;91.80;;;16.42;65.35;100236.81;5034943;28;20213;-52
2022/12/31 07:19:06;;;;;;;1.50;1.30;;;13.80;91.80;;;16.41;65.25;100251.91;5033350;28;20264;-53
2022/12/31 07:21:37;;;;;;;1.10;1.10;;;13.80;91.80;;;16.43;65.55;100264.97;5033206;28;20614;-52
2022/12/31 07:24:06;;;;;;;1.60;1.50;;;13.80;91.90;;;16.43;65.31;100254.34;5033460;28;20182;-52
2022/12/31 07:27:02;;;;;;;1.40;1.30;;;13.80;91.80;;;16.38;65.69;100256.88;5033325;28;20191;-53
2022/12/31 07:29:50;;;;;;;1.67;1.53;;;13.80;91.90;;;16.39;65.35;100253.19;5033364;28;20706;-52
2022/12/31 07:32:32;;;;;;;1.80;1.70;;;13.80;91.90;;;16.38;65.71;100252.38;5033083;28;20207;-53
2022/12/31 07:35:13;;;;;;;1.63;1.50;;;13.80;91.90;;;16.40;65.94;100265.44;5032930;28;20202;-52
2022/12/31 07:37:50;;;;;;;1.90;1.80;;;13.80;91.90;;;16.40;65.87;100260.13;5033279;28;20277;-52
2022/12/31 07:40:28;;;;;;;3.00;2.20;;;13.80;92.00;;;16.38;65.89;100249.72;5032979;28;20221;-53
2022/12/31 07:43:11;;;;;;;2.00;1.90;;;13.80;92.00;;;16.35;65.99;100241.38;5032484;28;20234;-52
2022/12/31 07:45:48;;;;;;;2.70;2.50;;;13.80;92.00;;;16.35;65.83;100236.06;5033323;28;20631;-52
2022/12/31 07:48:23;;;;;;;2.57;2.37;;;13.80;92.00;;;16.36;65.98;100257.09;5035462;28;20197;-53
2022/12/31 07:50:55;;;;;;;1.83;1.73;;;13.80;92.10;;;16.37;66.03;100266.69;5037125;28;20197;-55
2022/12/31 07:53:24;;;;;;;2.53;2.33;;;13.80;92.10;;;16.37;66.03;100271.19;5017212;28;20266;-53
2022/12/31 07:55:56;;;;;;;3.20;2.97;;;13.70;92.40;;;16.36;66.31;100258.94;5017268;28;20191;-53
2022/12/31 07:58:39;;;;;;;2.80;2.60;;;13.80;92.20;;;16.35;66.12;100262.63;5016888;28;20687;-52
2022/12/31 08:01:11;;;;;;;3.93;3.63;;;13.80;92.20;;;16.37;66.21;100244.63;5034838;28;20670;-52
2022/12/31 08:03:58;;;;;;;4.77;4.37;;;13.80;92.20;;;16.33;66.28;100259.41;5043295;28;20210;-54
2022/12/31 08:06:40;;;;;;;4.13;3.83;;;13.80;92.20;;;16.37;66.35;100255.25;5036886;28;20179;-52
2022/12/31 08:09:25;;;;;;;3.13;2.80;;;13.80;92.30;;;16.38;66.17;100249.72;5036352;28;20671;-55
2022/12/31 08:11:56;;;;;;;3.27;2.67;;;13.80;92.20;;;16.43;66.18;100249.03;5029361;28;20245;-53
2022/12/31 08:14:25;;;;;;;2.90;2.70;;;13.80;92.30;;;16.43;66.26;100243.72;5017024;28;20234;-54
2022/12/31 08:16:53;;;;;;;3.10;2.90;;;13.80;92.30;;;16.39;66.59;100238.06;5016294;28;20218;-55
2022/12/31 08:19:25;;;;;;;3.13;2.83;;;13.80;92.30;;;16.38;66.50;100252.38;5025594;28;20222;-55
2022/12/31 08:22:21;;;;;;;3.13;2.80;;;13.80;92.30;;;16.35;66.56;100249.34;5038232;28;20245;-52
2022/12/31 08:25:05;;;;;;;3.07;2.87;;;13.80;92.40;;;16.34;66.89;100245.06;5038160;28;20191;-54
2022/12/31 08:27:44;;;;;;;2.70;2.50;;;13.80;92.40;;;16.34;66.79;100251.19;5037337;28;20183;-56
2022/12/31 08:30:15;;;;;;;3.33;3.03;;;13.80;92.40;;;16.38;66.95;100238.28;5036044;28;20687;-54
2022/12/31 08:32:51;;;;;;;2.57;2.37;;;13.80;92.50;;;16.39;66.67;100248.69;5036605;28;20194;-55
2022/12/31 08:35:34;;;;;;;3.00;2.80;;;13.80;92.50;;;16.38;66.86;100262.19;5037167;28;20198;-52
2022/12/31 08:38:16;;;;;;;3.70;2.73;;;13.80;92.50;;;16.43;66.62;100259.66;5035983;28;20230;-53
2022/12/31 08:40:58;;;;;;;2.70;2.50;;;13.80;92.50;;;16.46;66.52;100261.88;5022040;28;20254;-51
2022/12/31 08:43:46;;;;;;;3.00;2.80;;;13.90;92.60;;;16.41;67.10;100257.22;5016372;28;20249;-54
2022/12/31 08:46:24;;;;;;;2.77;2.57;;;13.90;92.60;;;16.40;67.01;100244.19;5016100;28;20662;-55
2022/12/31 08:48:52;;;;;;;2.43;2.23;;;13.90;92.60;;;16.41;67.03;100251.91;5026491;28;20598;-56
2022/12/31 08:51:22;;;;;;;2.60;2.40;;;13.90;92.60;;;16.37;67.30;100253.41;5035630;28;20221;-52
2022/12/31 08:53:52;;;;;;;2.67;2.47;;;13.90;92.70;;;16.39;67.20;100253.19;5035658;28;20642;-54
2022/12/31 08:56:28;;;;;;;2.63;2.33;;;13.90;92.60;;;16.39;67.26;100254.00;5035510;28;20199;-55
2022/12/31 08:59:23;;;;;;;2.37;2.27;;;13.90;92.70;;;16.40;67.34;100266.25;5034044;28;20206;-55
2022/12/31 09:02:25;;;;;;;2.47;2.27;;;13.90;92.70;;;16.38;67.24;100262.19;5035481;28;20195;-55
2022/12/31 09:05:08;;;;;;;3.37;2.90;;;13.90;92.80;;;16.32;67.60;100260.41;5035345;28;20190;-55
2022/12/31 09:07:39;;;;;;;2.47;2.20;;;13.90;92.80;;;16.36;67.68;100259.75;5035337;28;20185;-55
2022/12/31 09:10:19;;;;;;;2.83;2.63;;;13.90;92.70;;;16.38;67.74;100267.50;5017539;28;20223;-53
2022/12/31 09:13:03;;;;;;;2.67;2.47;;;13.90;92.90;;;16.35;67.92;100265.28;5015518;28;20186;-56
2022/12/31 09:15:40;;;;;;;2.10;2.00;;;13.90;93.00;;;16.35;67.95;100262.63;5015637;28;20179;-55
2022/12/31 09:18:10;;;;;;;2.00;1.90;;;13.90;92.90;;;16.42;68.04;100268.69;5015921;28;20233;-51
2022/12/31 09:20:38;;;;;;;1.93;1.83;;;14.00;93.00;;;16.41;68.21;100272.34;5029852;28;20214;-50
2022/12/31 09:23:12;;;;;;;2.93;1.63;;;13.90;93.10;;;16.42;68.01;100276.66;5015457;28;20184;-53
2022/12/31 09:25:52;;;;;;;1.40;1.30;;;14.00;93.10;;;16.46;68.20;100280.47;5015163;28;20290;-55
2022/12/31 09:28:38;;;;;;;1.07;1.07;;;14.00;93.20;;;16.52;68.09;100284.94;5017415;28;20179;-54
2022/12/31 09:31:13;;;;;;;1.40;1.30;;;14.00;93.10;;;16.55;67.78;100274.66;5035202;28;20182;-53
2022/12/31 09:33:51;;;;;;;1.50;1.40;;;14.10;93.30;;;16.57;67.83;100271.78;5035171;28;20202;-56
2022/12/31 09:36:29;;;;;;;1.20;1.20;;;14.10;93.20;;;16.58;68.26;100289.34;5034831;28;20289;-55
2022/12/31 09:39:09;;;;;;;1.07;1.07;;;14.20;93.30;;;16.61;68.19;100286.25;5033720;28;20218;-55
2022/12/31 09:42:16;;;;;;;1.10;1.10;;;14.20;93.30;;;16.60;68.19;100276.63;5033593;28;20201;-53
2022/12/31 09:45:27;;;;;;;1.13;1.03;;;14.20;93.30;;;16.55;68.45;100273.84;5034733;28;20189;-54
2022/12/31 09:48:47;;;;;;;1.00;1.00;;;14.30;93.30;;;16.59;68.67;100273.16;5034656;28;20209;-53
2022/12/31 09:51:31;;;;;;;1.33;1.03;;;14.30;93.30;;;16.61;68.59;100270.28;5034573;28;20186;-52
2022/12/31 09:54:44;;;;;;;1.00;0.90;;;14.30;93.40;;;16.62;69.27;100269.25;5034261;28;20185;-52
2022/12/31 09:57:35;;;;;;;0.80;0.80;;;14.30;93.50;;;16.64;68.87;100273.28;4973564;28;20240;-53
2022/12/31 10:00:11;;;;;;;0.70;0.70;;;14.40;93.40;;;16.78;68.71;100273.94;4957596;28;20307;-53
2022/12/31 10:02:58;;;;;;;0.87;0.87;;;14.40;93.40;;;16.87;68.46;100281.38;5000303;28;20211;-53
2022/12/31 10:05:55;;;;;;;0.83;0.83;;;14.40;93.80;;;16.92;68.48;100291.31;5014624;28;20175;-56
2022/12/31 10:08:46;;;;;;;1.37;1.10;;;14.50;93.60;;;16.95;68.50;100279.44;5024832;28;20268;-56
2022/12/31 10:11:25;;;;;;;0.90;0.90;;;14.50;93.60;;;17.05;68.40;100277.81;5014038;28;20186;-55
2022/12/31 10:14:17;;;;;;;0.90;0.90;;;14.60;93.60;;;17.11;68.14;100279.59;5014481;28;20344;-55
2022/12/31 10:17:17;;;;;;;0.80;0.80;;;14.60;93.60;;;17.16;68.24;100261.09;5014100;28;20195;-53
2022/12/31 10:20:24;;;;;;;2.43;1.00;;;14.70;93.60;;;17.26;68.04;100298.56;5022524;28;20230;-56
2022/12/31 10:23:19;;;;;;;0.77;0.77;;;14.70;93.50;;;17.34;67.75;100274.28;5033857;28;20686;-54
2022/12/31 10:26:22;;;;;;;0.77;0.70;;;14.80;93.60;;;17.39;67.57;100285.06;5033847;28;20209;-56
2022/12/31 10:28:57;;;;;;;0.53;0.53;;;14.80;93.60;;;17.48;67.54;100283.69;5028597;28;20211;-54
2022/12/31 10:31:39;;;;;;;1.13;1.03;;;14.90;93.50;;;17.51;67.53;100290.38;5026565;28;20194;-54
2022/12/31 10:34:15;;;;;;;1.53;0.87;;;14.90;93.50;;;17.52;67.42;100297.34;5032794;28;20202;-55
2022/12/31 10:36:56;;;;;;;0.67;0.67;;;15.00;93.40;;;17.53;67.64;100289.16;5033479;28;20281;-56
2022/12/31 10:39:57;;;;;;;1.67;0.70;;;15.00;93.40;;;17.59;67.64;100303.38;5033009;28;20680;-55
2022/12/31 10:43:17;;;;;;;0.60;0.60;;;15.00;93.30;;;17.65;67.32;100306.97;5033698;28;20178;-55
2022/12/31 10:46:31;;;;;;;0.87;0.87;;;15.10;93.40;;;17.70;67.33;100315.06;5015742;28;20234;-53
2022/12/31 10:49:38;;;;;;;0.83;0.83;;;15.10;93.30;;;17.69;67.37;100329.41;5009584;28;20232;-52
2022/12/31 10:53:04;;;;;;;1.57;0.80;;;15.20;93.20;;;17.70;67.09;100325.72;5033248;28;20194;-55
2022/12/31 10:56:04;;;;;;;0.70;0.60;;;15.20;93.20;;;17.73;67.14;100330.59;5033462;28;20185;-55
2022/12/31 10:59:38;;;;;;;0.93;0.60;;;15.30;93.10;;;17.73;67.25;100341.25;5032618;28;20218;-52
2022/12/31 11:02:54;;;;;;;0.70;0.70;;;15.30;93.00;;;17.67;67.26;100323.50;5009921;28;20215;-54
2022/12/31 11:06:02;;;;;;;0.60;0.60;;;15.30;92.90;;;17.65;67.30;100312.28;5013248;28;20588;-54